createdAt,value
2018-03-26T00:00:47.145Z,79.30
2018-03-26T00:03:13.718Z,79.80
2018-03-26T00:05:40.297Z,79.70
2018-03-26T00:08:06.862Z,79.70
2018-03-26T00:10:33.425Z,79.70
2018-03-26T00:12:59.990Z,80.50
2018-03-26T00:15:26.534Z,80.50
2018-03-26T00:17:53.091Z,80.60
2018-03-26T00:20:19.690Z,80.10
2018-03-26T00:22:46.235Z,80.60
2018-03-26T00:25:13.182Z,80.70
2018-03-26T00:27:40.166Z,80.80
2018-03-26T00:30:06.738Z,80.80
2018-03-26T00:32:33.308Z,80.70
2018-03-26T00:34:59.888Z,80.30
2018-03-26T00:37:26.798Z,80.00
2018-03-26T00:39:53.381Z,80.00
2018-03-26T00:42:20.313Z,80.40
2018-03-26T00:44:46.850Z,80.40
2018-03-26T00:47:13.436Z,80.00
2018-03-26T00:49:40.373Z,80.50
2018-03-26T00:52:06.977Z,80.50
2018-03-26T00:54:33.569Z,80.80
2018-03-26T00:57:00.135Z,81.10
2018-03-26T00:59:27.072Z,80.20
2018-03-26T01:01:53.657Z,80.30
2018-03-26T01:04:20.224Z,80.00
2018-03-26T01:06:46.780Z,80.60
2018-03-26T01:09:13.447Z,80.90
2018-03-26T01:11:40.101Z,80.70
2018-03-26T01:14:06.645Z,80.70
2018-03-26T01:16:33.213Z,80.90
2018-03-26T01:18:59.786Z,80.50
2018-03-26T01:21:26.689Z,80.20
2018-03-26T01:23:53.245Z,80.20
2018-03-26T01:26:19.818Z,80.60
2018-03-26T01:28:46.413Z,80.70
2018-03-26T01:31:12.987Z,80.60
2018-03-26T01:33:39.554Z,80.90
2018-03-26T01:36:06.182Z,81.00
2018-03-26T01:38:32.831Z,81.40
2018-03-26T01:40:59.402Z,82.20
2018-03-26T01:43:25.965Z,83.00
2018-03-26T01:45:52.936Z,82.60
2018-03-26T01:48:19.494Z,82.60
2018-03-26T01:50:46.026Z,82.40
2018-03-26T01:53:13.032Z,82.40
2018-03-26T01:55:39.608Z,82.40
2018-03-26T01:58:06.154Z,82.20
2018-03-26T02:00:32.741Z,82.20
2018-03-26T02:02:59.313Z,82.60
2018-03-26T02:05:25.844Z,83.20
2018-03-26T02:07:52.405Z,83.00
2018-03-26T02:10:18.965Z,82.60
2018-03-26T02:12:45.518Z,82.50
2018-03-26T02:15:12.078Z,82.10
2018-03-26T02:17:38.645Z,82.60
2018-03-26T02:20:05.216Z,82.90
2018-03-26T02:22:31.785Z,82.90
2018-03-26T02:24:58.346Z,83.40
2018-03-26T02:27:24.908Z,83.30
2018-03-26T02:29:51.479Z,82.60
2018-03-26T02:32:18.417Z,82.80
2018-03-26T02:34:44.978Z,82.80
2018-03-26T02:37:11.916Z,82.90
2018-03-26T02:39:38.477Z,82.90
2018-03-26T02:42:05.042Z,82.90
2018-03-26T02:44:31.974Z,82.80
2018-03-26T02:46:58.544Z,82.80
2018-03-26T02:49:25.442Z,83.30
2018-03-26T02:51:52.018Z,83.30
2018-03-26T02:54:18.614Z,83.40
2018-03-26T02:56:45.157Z,84.00
2018-03-26T02:59:11.762Z,84.30
2018-03-26T03:01:38.331Z,84.20
2018-03-26T03:04:05.238Z,84.10
2018-03-26T03:06:31.810Z,84.10
2018-03-26T03:08:58.373Z,84.10
2018-03-26T03:11:24.897Z,83.60
2018-03-26T03:13:51.461Z,83.40
2018-03-26T03:16:18.033Z,83.20
2018-03-26T03:18:44.942Z,82.90
2018-03-26T03:21:11.500Z,82.90
2018-03-26T03:23:38.062Z,82.80
2018-03-26T03:26:04.610Z,82.60
2018-03-26T03:28:31.554Z,82.40
2018-03-26T03:30:58.130Z,82.40
2018-03-26T03:33:25.033Z,82.70
2018-03-26T03:35:51.604Z,82.70
2018-03-26T03:38:18.190Z,82.80
2018-03-26T03:40:45.091Z,83.30
2018-03-26T03:43:11.658Z,83.30
2018-03-26T03:45:38.221Z,83.10
2018-03-26T03:48:05.163Z,82.50
2018-03-26T03:50:31.721Z,82.50
2018-03-26T03:52:58.653Z,82.60
2018-03-26T03:55:25.230Z,82.60
2018-03-26T03:57:52.166Z,82.70
2018-03-26T04:00:18.737Z,82.70
2018-03-26T04:02:45.632Z,82.80
2018-03-26T04:05:12.198Z,82.80
2018-03-26T04:07:38.770Z,82.90
2018-03-26T04:10:05.714Z,83.40
2018-03-26T04:12:32.282Z,83.40
2018-03-26T04:14:59.214Z,83.40
2018-03-26T04:17:25.797Z,83.40
2018-03-26T04:19:52.733Z,82.90
2018-03-26T04:22:19.310Z,82.90
2018-03-26T04:24:46.206Z,82.70
2018-03-26T04:27:12.766Z,82.70
2018-03-26T04:29:39.330Z,82.90
2018-03-26T04:32:05.876Z,83.00
2018-03-26T04:34:32.445Z,82.80
2018-03-26T04:36:59.377Z,83.00
2018-03-26T04:39:25.901Z,83.00
2018-03-26T04:41:52.469Z,82.90
2018-03-26T04:44:19.030Z,83.30
2018-03-26T04:46:45.566Z,83.50
2018-03-26T04:49:12.125Z,83.50
2018-03-26T04:51:38.693Z,83.40
2018-03-26T04:54:05.601Z,83.20
2018-03-26T04:56:32.198Z,83.20
2018-03-26T04:58:59.153Z,83.50
2018-03-26T05:01:25.689Z,83.50
2018-03-26T05:03:52.618Z,83.00
2018-03-26T05:06:19.191Z,83.00
2018-03-26T05:08:46.089Z,82.80
2018-03-26T05:11:12.665Z,82.90
2018-03-26T05:13:39.241Z,83.20
2018-03-26T05:16:05.787Z,83.80
2018-03-26T05:18:32.722Z,84.10
2018-03-26T05:20:59.290Z,84.10
2018-03-26T05:23:26.190Z,83.70
2018-03-26T05:25:52.794Z,83.70
2018-03-26T05:28:19.742Z,84.10
2018-03-26T05:30:46.273Z,84.10
2018-03-26T05:33:12.870Z,83.80
2018-03-26T05:35:39.460Z,83.80
2018-03-26T05:38:05.998Z,83.80
2018-03-26T05:40:32.581Z,83.80
2018-03-26T05:42:59.546Z,83.30
2018-03-26T05:45:26.457Z,83.00
2018-03-26T05:47:53.026Z,83.20
2018-03-26T05:50:19.598Z,82.70
2018-03-26T05:52:46.501Z,82.70
2018-03-26T05:55:13.109Z,82.70
2018-03-26T05:57:40.051Z,82.90
2018-03-26T06:00:06.985Z,82.70
2018-03-26T06:02:33.561Z,82.70
2018-03-26T06:05:00.585Z,82.40
2018-03-26T06:07:27.126Z,82.40
2018-03-26T06:09:53.709Z,82.10
2018-03-26T06:12:20.650Z,81.00
2018-03-26T06:14:47.245Z,80.90
2018-03-26T06:17:15.908Z,80.50
2018-03-26T06:19:42.921Z,80.40
2018-03-26T06:22:09.563Z,80.40
2018-03-26T06:24:36.235Z,80.70
2018-03-26T06:27:02.830Z,81.30
2018-03-26T06:29:29.780Z,81.40
2018-03-26T06:31:56.773Z,81.50
2018-03-26T06:34:23.403Z,81.50
2018-03-26T06:39:50.990Z,82.10
2018-03-26T06:42:17.934Z,82.10
2018-03-26T06:44:44.870Z,81.80
2018-03-26T06:47:11.461Z,81.80
2018-03-26T06:49:38.402Z,81.20
2018-03-26T06:52:05.342Z,81.10
2018-03-26T06:54:31.878Z,81.10
2018-03-26T06:56:58.482Z,81.00
2018-03-26T06:59:25.046Z,81.30
2018-03-26T07:01:51.594Z,81.00
2018-03-26T07:04:18.162Z,80.50
2018-03-26T07:06:44.745Z,80.00
2018-03-26T07:09:11.650Z,80.10
2018-03-26T07:11:38.212Z,80.10
2018-03-26T07:14:04.786Z,79.70
2018-03-26T07:16:31.322Z,79.30
2018-03-26T07:18:57.895Z,78.90
2018-03-26T07:21:24.838Z,77.50
2018-03-26T07:23:51.742Z,77.70
2018-03-26T07:26:18.322Z,77.70
2018-03-26T07:28:44.892Z,77.10
2018-03-26T07:31:11.793Z,77.00
2018-03-26T07:33:38.352Z,77.00
2018-03-26T07:36:04.929Z,77.00
2018-03-26T07:38:31.454Z,77.20
2018-03-26T07:40:58.009Z,77.10
2018-03-26T07:43:24.573Z,77.40
2018-03-26T07:45:51.105Z,77.60
2018-03-26T07:48:17.677Z,77.50
2018-03-26T07:50:44.609Z,77.70
2018-03-26T07:53:11.158Z,77.70
2018-03-26T07:55:37.762Z,77.60
2018-03-26T07:58:04.342Z,77.40
2018-03-26T08:00:30.929Z,77.10
2018-03-26T08:02:57.893Z,76.90
2018-03-26T08:05:24.833Z,74.30
2018-03-26T08:07:51.741Z,74.60
2018-03-26T08:10:18.308Z,74.60
2018-03-26T08:12:44.885Z,75.30
2018-03-26T08:15:11.794Z,75.80
2018-03-26T08:17:38.349Z,75.80
2018-03-26T08:20:04.977Z,75.20
2018-03-26T08:22:31.514Z,74.50
2018-03-26T08:24:58.098Z,74.60
2018-03-26T08:27:24.666Z,74.40
2018-03-26T08:29:51.214Z,74.40
2018-03-26T08:32:17.853Z,73.90
2018-03-26T08:34:44.413Z,73.40
2018-03-26T08:37:10.952Z,73.30
2018-03-26T08:39:37.526Z,72.20
2018-03-26T08:42:04.521Z,73.30
2018-03-26T08:44:31.068Z,73.40
2018-03-26T08:46:57.641Z,72.80
2018-03-26T08:49:24.211Z,73.60
2018-03-26T08:51:51.113Z,72.80
2018-03-26T08:54:17.677Z,72.80
2018-03-26T08:56:44.303Z,72.90
2018-03-26T08:59:10.875Z,71.60
2018-03-26T09:01:37.451Z,72.20
2018-03-26T09:04:04.020Z,71.90
2018-03-26T09:06:38.006Z,72.60
2018-03-26T09:09:04.650Z,72.60
2018-03-26T09:11:31.199Z,71.60
2018-03-26T09:13:57.773Z,72.00
2018-03-26T09:16:24.718Z,70.70
2018-03-26T09:18:51.273Z,70.70
2018-03-26T09:21:17.853Z,71.40
2018-03-26T09:23:44.428Z,70.70
2018-03-26T09:26:10.962Z,71.10
2018-03-26T09:28:37.534Z,69.80
2018-03-26T09:31:04.140Z,68.10
2018-03-26T09:33:30.673Z,68.90
2018-03-26T09:35:57.634Z,67.20
2018-03-26T09:38:24.586Z,66.10
2018-03-26T09:40:51.502Z,66.70
2018-03-26T09:43:18.080Z,66.70
2018-03-26T09:45:44.681Z,65.90
2018-03-26T09:48:11.229Z,64.60
2018-03-26T09:50:37.803Z,63.80
2018-03-26T09:53:04.406Z,64.00
2018-03-26T09:55:30.958Z,65.30
2018-03-26T09:57:57.526Z,63.00
2018-03-26T10:00:30.254Z,63.50
2018-03-26T10:02:56.818Z,64.00
2018-03-26T10:05:23.385Z,63.10
2018-03-26T10:07:49.927Z,63.00
2018-03-26T10:10:16.634Z,64.50
2018-03-26T10:12:43.207Z,64.80
2018-03-26T10:15:09.758Z,64.80
2018-03-26T10:17:36.333Z,66.10
2018-03-26T10:20:02.973Z,67.10
2018-03-26T10:22:29.513Z,66.40
2018-03-26T10:24:56.068Z,68.00
2018-03-26T10:27:22.721Z,67.60
2018-03-26T10:29:49.542Z,67.80
2018-03-26T10:32:16.509Z,65.20
2018-03-26T10:34:43.086Z,65.20
2018-03-26T10:37:09.629Z,66.00
2018-03-26T10:39:36.245Z,67.30
2018-03-26T10:42:03.202Z,65.30
2018-03-26T10:44:30.119Z,66.40
2018-03-26T10:46:56.722Z,66.40
2018-03-26T10:49:23.289Z,65.20
2018-03-26T10:51:49.828Z,66.10
2018-03-26T10:54:16.398Z,67.10
2018-03-26T10:56:42.982Z,65.10
2018-03-26T10:59:09.925Z,65.20
2018-03-26T11:01:36.494Z,65.20
2018-03-26T11:04:03.454Z,65.10
2018-03-26T11:06:30.362Z,65.70
2018-03-26T11:08:56.980Z,65.80
2018-03-26T11:11:23.554Z,65.90
2018-03-26T11:13:50.142Z,66.70
2018-03-26T11:16:17.086Z,66.30
2018-03-26T11:18:43.678Z,66.30
2018-03-26T11:21:10.273Z,66.70
2018-03-26T11:23:36.841Z,66.70
2018-03-26T11:26:03.802Z,65.30
2018-03-26T11:28:37.582Z,64.70
2018-03-26T11:31:04.163Z,64.70
2018-03-26T11:33:31.078Z,64.30
2018-03-26T11:35:57.670Z,64.30
2018-03-26T11:38:24.873Z,63.50
2018-03-26T11:40:51.687Z,63.40
2018-03-26T11:43:18.625Z,62.90
2018-03-26T11:45:45.207Z,62.90
2018-03-26T11:48:11.746Z,62.50
2018-03-26T11:50:38.838Z,63.00
2018-03-26T11:53:05.461Z,63.10
2018-03-26T11:55:31.998Z,62.20
2018-03-26T11:57:58.978Z,62.30
2018-03-26T12:00:25.650Z,62.30
2018-03-26T12:02:52.202Z,62.90
2018-03-26T12:05:18.776Z,64.20
2018-03-26T12:07:45.349Z,60.70
2018-03-26T12:10:12.268Z,64.90
2018-03-26T12:12:38.849Z,64.90
2018-03-26T12:15:05.858Z,61.80
2018-03-26T12:17:32.426Z,61.80
2018-03-26T12:20:11.054Z,63.20
2018-03-26T12:22:37.628Z,64.10
2018-03-26T12:25:16.334Z,64.70
2018-03-26T12:27:54.968Z,64.70
2018-03-26T12:30:23.386Z,66.00
2018-03-26T12:32:50.324Z,64.80
2018-03-26T12:35:29.093Z,64.80
2018-03-26T12:37:55.666Z,65.80
2018-03-26T12:40:34.345Z,64.50
2018-03-26T12:43:00.930Z,66.10
2018-03-26T12:45:39.650Z,66.60
2018-03-26T12:48:06.590Z,68.10
2018-03-26T12:50:45.762Z,68.20
2018-03-26T12:53:12.400Z,68.20
2018-03-26T12:55:39.315Z,68.40
2018-03-26T12:58:18.214Z,68.40
2018-03-26T13:00:56.798Z,68.40
2018-03-26T13:03:23.406Z,66.70
2018-03-26T13:05:50.117Z,67.50
2018-03-26T13:08:16.634Z,69.40
2018-03-26T13:10:43.216Z,68.30
2018-03-26T13:13:10.189Z,69.10
2018-03-26T13:15:36.734Z,69.10
2018-03-26T13:18:03.309Z,71.00
2018-03-26T13:20:29.877Z,71.10
2018-03-26T13:22:56.416Z,71.40
2018-03-26T13:25:22.990Z,70.70
2018-03-26T13:27:49.938Z,71.00
2018-03-26T13:30:16.542Z,71.00
2018-03-26T13:32:43.111Z,72.30
2018-03-26T13:35:09.677Z,72.00
2018-03-26T13:37:36.223Z,72.50
2018-03-26T13:40:02.882Z,71.50
2018-03-26T13:42:29.455Z,72.40
2018-03-26T13:44:55.993Z,71.70
2018-03-26T13:47:22.963Z,72.10
2018-03-26T13:49:49.550Z,72.10
2018-03-26T13:52:16.137Z,72.50
2018-03-26T13:54:43.089Z,71.60
2018-03-26T13:57:10.056Z,72.00
2018-03-26T13:59:36.976Z,72.80
2018-03-26T14:02:03.650Z,72.80
2018-03-26T14:04:30.225Z,72.30
2018-03-26T14:06:56.805Z,71.90
2018-03-26T14:09:35.481Z,72.10
2018-03-26T14:12:14.426Z,72.10
2018-03-26T14:14:53.466Z,70.20
2018-03-26T14:17:32.457Z,69.60
2018-03-26T14:19:59.054Z,69.60
2018-03-26T14:22:25.990Z,70.90
2018-03-26T14:24:52.534Z,70.90
2018-03-26T14:27:19.167Z,70.90
2018-03-26T14:29:45.736Z,70.60
2018-03-26T14:32:12.271Z,69.30
2018-03-26T14:34:38.917Z,70.20
2018-03-26T14:37:05.485Z,70.40
2018-03-26T14:39:32.404Z,69.00
2018-03-26T14:41:59.013Z,68.90
2018-03-26T14:44:25.591Z,68.20
2018-03-26T14:46:52.195Z,67.80
2018-03-26T14:49:19.144Z,68.90
2018-03-26T14:51:45.719Z,68.90
2018-03-26T14:54:12.259Z,68.00
2018-03-26T14:56:38.848Z,68.80
2018-03-26T14:59:05.418Z,68.90
2018-03-26T15:01:31.989Z,68.60
2018-03-26T15:03:59.738Z,69.50
2018-03-26T15:06:26.314Z,69.50
2018-03-26T15:08:53.246Z,69.80
2018-03-26T15:11:19.830Z,69.80
2018-03-26T15:13:46.773Z,71.30
2018-03-26T15:16:13.690Z,72.50
2018-03-26T15:18:40.273Z,72.50
2018-03-26T15:21:07.215Z,72.80
2018-03-26T15:23:33.790Z,72.80
2018-03-26T15:26:00.741Z,74.10
2018-03-26T15:28:27.710Z,74.60
2018-03-26T15:30:54.637Z,74.40
2018-03-26T15:33:21.202Z,74.50
2018-03-26T15:35:47.797Z,75.00
2018-03-26T15:38:14.345Z,75.40
2018-03-26T15:40:40.931Z,74.20
2018-03-26T15:43:07.882Z,74.40
2018-03-26T15:45:34.417Z,74.40
2018-03-26T15:48:00.998Z,73.30
2018-03-26T15:50:27.954Z,74.00
2018-03-26T15:52:54.875Z,73.30
2018-03-26T15:55:21.437Z,73.30
2018-03-26T15:57:48.014Z,72.70
2018-03-26T16:00:14.691Z,72.70
2018-03-26T16:02:47.358Z,72.70
2018-03-26T16:05:14.022Z,71.20
2018-03-26T16:07:40.607Z,71.50
2018-03-26T16:10:07.315Z,71.20
2018-03-26T16:12:33.969Z,70.60
2018-03-26T16:15:00.594Z,70.30
2018-03-26T16:17:27.593Z,71.30
2018-03-26T16:19:54.159Z,71.30
2018-03-26T16:22:20.702Z,70.90
2018-03-26T16:24:47.294Z,70.50
2018-03-26T16:27:13.883Z,70.40
2018-03-26T16:29:40.436Z,70.40
2018-03-26T16:32:14.065Z,71.60
2018-03-26T16:34:40.651Z,72.30
2018-03-26T16:37:07.561Z,72.60
2018-03-26T16:39:34.137Z,72.60
2018-03-26T16:42:12.806Z,72.50
2018-03-26T16:44:39.393Z,73.40
2018-03-26T16:47:05.994Z,73.40
2018-03-26T16:49:32.534Z,72.70
2018-03-26T16:51:59.111Z,72.80
2018-03-26T16:54:25.700Z,74.10
2018-03-26T16:56:52.230Z,75.50
2018-03-26T16:59:18.848Z,76.30
2018-03-26T17:01:45.459Z,77.20
2018-03-26T17:04:12.361Z,78.10
2018-03-26T17:06:38.939Z,78.10
2018-03-26T17:09:05.542Z,78.50
2018-03-26T17:11:32.098Z,78.60
2018-03-26T17:13:58.669Z,79.10
2018-03-26T17:16:25.266Z,79.30
2018-03-26T17:18:51.802Z,79.30
2018-03-26T17:21:18.415Z,79.80
2018-03-26T17:23:44.976Z,80.20
2018-03-26T17:26:11.525Z,79.50
2018-03-26T17:28:45.142Z,79.90
2018-03-26T17:31:12.122Z,80.20
2018-03-26T17:33:39.038Z,80.20
2018-03-26T17:36:05.619Z,80.20
2018-03-26T17:38:32.565Z,80.10
2018-03-26T17:40:59.127Z,80.10
2018-03-26T17:43:26.078Z,80.10
2018-03-26T17:45:53.034Z,80.00
2018-03-26T17:48:19.952Z,79.90
2018-03-26T17:50:46.546Z,79.90
2018-03-26T17:53:13.494Z,80.00
2018-03-26T17:55:40.418Z,80.20
2018-03-26T17:58:07.025Z,80.20
2018-03-26T18:00:33.658Z,79.00
2018-03-26T18:03:00.566Z,79.80
2018-03-26T18:05:27.139Z,79.80
2018-03-26T18:07:54.075Z,83.60
2018-03-26T18:10:20.646Z,83.60
2018-03-26T18:12:47.605Z,85.90
2018-03-26T18:15:14.556Z,88.40
2018-03-26T18:17:41.103Z,88.50
2018-03-26T18:20:08.082Z,91.50
2018-03-26T18:22:35.022Z,89.70
2018-03-26T18:25:01.947Z,91.10
2018-03-26T18:27:28.543Z,91.10
2018-03-26T18:29:55.490Z,91.40
2018-03-26T18:32:22.406Z,90.20
2018-03-26T18:34:48.973Z,90.20
2018-03-26T18:37:15.550Z,91.30
2018-03-26T18:39:42.456Z,92.40
2018-03-26T18:42:09.062Z,92.40
2018-03-26T18:44:35.629Z,92.40
2018-03-26T18:47:02.174Z,92.60
2018-03-26T18:49:29.606Z,92.30
2018-03-26T18:51:56.590Z,91.90
2018-03-26T18:54:23.130Z,91.90
2018-03-26T18:56:49.719Z,93.00
2018-03-26T18:59:16.277Z,93.90
2018-03-26T19:01:42.854Z,94.20
2018-03-26T19:04:09.797Z,93.20
2018-03-26T19:06:36.370Z,93.20
2018-03-26T19:09:03.032Z,93.10
2018-03-26T19:11:29.684Z,93.10
2018-03-26T19:13:56.630Z,93.80
2018-03-26T19:16:23.174Z,93.60
2018-03-26T19:18:49.755Z,93.60
2018-03-26T19:21:16.335Z,94.10
2018-03-26T19:23:42.901Z,93.50
2018-03-26T19:26:09.906Z,93.20
2018-03-26T19:28:36.489Z,93.20
2018-03-26T19:31:03.043Z,94.00
2018-03-26T19:33:30.006Z,94.10
2018-03-26T19:35:56.954Z,94.20
2018-03-26T19:38:23.547Z,94.20
2018-03-26T19:40:50.134Z,93.60
2018-03-26T19:43:16.702Z,94.00
2018-03-26T19:45:43.613Z,93.60
2018-03-26T19:48:10.188Z,93.60
2018-03-26T19:50:36.761Z,93.60
2018-03-26T19:53:03.678Z,92.90
2018-03-26T19:55:30.190Z,93.00
2018-03-26T19:57:56.704Z,93.30
2018-03-26T20:00:23.563Z,93.60
2018-03-26T20:02:50.940Z,93.40
2018-03-26T20:05:17.568Z,93.40
2018-03-26T20:07:44.086Z,94.30
2018-03-26T20:10:10.657Z,94.30
2018-03-26T20:12:37.239Z,93.80
2018-03-26T20:15:03.839Z,94.00
2018-03-26T20:17:30.459Z,94.00
2018-03-26T20:19:57.029Z,93.70
2018-03-26T20:22:23.591Z,93.70
2018-03-26T20:24:50.575Z,93.10
2018-03-26T20:27:17.509Z,93.30
2018-03-26T20:29:44.048Z,93.30
2018-03-26T20:32:10.629Z,93.10
2018-03-26T20:34:37.266Z,92.80
2018-03-26T20:37:04.392Z,93.00
2018-03-26T20:39:30.961Z,93.00
2018-03-26T20:41:57.526Z,93.30
2018-03-26T20:44:24.439Z,93.00
2018-03-26T20:46:51.006Z,93.00
2018-03-26T20:49:17.603Z,92.90
2018-03-26T20:51:44.137Z,92.90
2018-03-26T20:54:10.707Z,92.90
2018-03-26T20:56:37.269Z,93.00
2018-03-26T20:59:03.805Z,92.60
2018-03-26T21:01:30.397Z,92.20
2018-03-26T21:03:56.962Z,92.10
2018-03-26T21:06:23.877Z,92.50
2018-03-26T21:08:50.458Z,92.50
2018-03-26T21:11:17.414Z,91.80
2018-03-26T21:13:44.329Z,91.90
2018-03-26T21:16:10.903Z,91.90
2018-03-26T21:18:37.473Z,91.60
2018-03-26T21:21:04.394Z,91.60
2018-03-26T21:23:30.973Z,91.60
2018-03-26T21:25:57.932Z,92.40
2018-03-26T21:28:24.866Z,91.20
2018-03-26T21:30:51.441Z,91.20
2018-03-26T21:33:18.414Z,91.00
2018-03-26T21:35:44.954Z,91.00
2018-03-26T21:38:11.533Z,90.80
2018-03-26T21:40:38.110Z,90.70
2018-03-26T21:43:04.654Z,90.90
2018-03-26T21:45:31.226Z,90.70
2018-03-26T21:47:58.179Z,90.80
2018-03-26T21:50:25.086Z,90.60
2018-03-26T21:52:51.653Z,90.60
2018-03-26T21:55:18.231Z,90.70
2018-03-26T21:57:45.140Z,91.00
2018-03-26T22:00:19.505Z,91.00
2018-03-26T22:02:46.505Z,90.50
2018-03-26T22:05:13.053Z,90.50
2018-03-26T22:07:39.617Z,90.20
2018-03-26T22:10:06.218Z,90.90
2018-03-26T22:12:33.130Z,91.40
2018-03-26T22:14:59.733Z,91.40
2018-03-26T22:17:26.717Z,91.70
2018-03-26T22:19:53.259Z,91.70
2018-03-26T22:22:19.834Z,91.40
2018-03-26T22:24:46.398Z,91.40
2018-03-26T22:27:12.958Z,90.90
2018-03-26T22:29:39.522Z,90.50
2018-03-26T22:32:06.472Z,89.90
2018-03-26T22:34:33.378Z,89.20
2018-03-26T22:36:59.942Z,89.20
2018-03-26T22:39:26.514Z,89.80
2018-03-26T22:41:53.438Z,89.30
2018-03-26T22:44:20.014Z,89.30
2018-03-26T22:46:46.583Z,89.30
2018-03-26T22:49:13.482Z,90.00
2018-03-26T22:51:40.041Z,90.00
2018-03-26T22:54:06.802Z,90.20
2018-03-26T22:56:33.352Z,89.80
2018-03-26T22:58:59.921Z,89.70
2018-03-26T23:01:26.861Z,89.80
2018-03-26T23:03:53.433Z,89.80
2018-03-26T23:06:20.417Z,89.50
2018-03-26T23:08:46.978Z,89.50
2018-03-26T23:11:13.510Z,89.80
2018-03-26T23:13:40.086Z,89.90
2018-03-26T23:16:06.662Z,90.20
2018-03-26T23:18:33.194Z,90.60
2018-03-26T23:20:59.766Z,90.70
2018-03-26T23:23:26.718Z,89.40
2018-03-26T23:25:53.633Z,89.80
2018-03-26T23:28:20.196Z,89.80
2018-03-26T23:30:46.758Z,89.70
2018-03-26T23:33:13.298Z,89.90
2018-03-26T23:35:39.870Z,89.80
2018-03-26T23:38:06.805Z,90.00
2018-03-26T23:40:33.339Z,90.00
2018-03-26T23:42:59.902Z,90.00
2018-03-26T23:45:26.481Z,89.90
2018-03-26T23:47:53.015Z,90.30
2018-03-26T23:50:19.954Z,90.40
2018-03-26T23:52:46.527Z,90.40
2018-03-26T23:55:13.073Z,90.80
2018-03-26T23:57:40.010Z,91.20
